Time;durP1;ratioP1;P1;durP2;ratioP2;P2;SDS_P1;SDS_P2;PMS_P1;PMS_P2;Temp;Humidity;BMP_temperature;BMP_pressure;BME280_temperature;BME280_humidity;BME280_pressure;Samples;Min_cycle;Max_cycle;Signal;HPM_P1;HPM_P2
2022/08/09 00:01:27;;;;;;;3.57;2.20;;;18.90;99.70;;;;;;5009555;28;20204;-76
2022/08/09 00:03:53;;;;;;;3.43;2.40;;;18.90;99.60;;;;;;4991587;28;20185;-77
2022/08/09 00:06:18;;;;;;;6.00;2.80;;;18.90;99.60;;;;;;4991712;28;20622;-76
2022/08/09 00:08:47;;;;;;;4.13;2.40;;;18.90;99.90;;;;;;5009300;28;20262;-78
2022/08/09 00:11:17;;;;;;;5.60;2.77;;;18.90;99.90;;;;;;4991896;28;20213;-77
2022/08/09 00:13:43;;;;;;;3.10;2.50;;;18.80;99.80;;;;;;4991462;28;20423;-76
2022/08/09 00:16:10;;;;;;;4.00;2.87;;;18.90;99.90;;;;;;5009093;28;20428;-76
2022/08/09 00:18:36;;;;;;;2.60;2.40;;;18.80;99.90;;;;;;5009184;28;20467;-77
2022/08/09 00:21:06;;;;;;;2.97;2.77;;;18.80;99.90;;;;;;4991504;28;20450;-76
2022/08/09 00:23:33;;;;;;;5.30;2.77;;;18.80;99.90;;;;;;4992351;28;20420;-76
2022/08/09 00:25:59;;;;;;;2.43;2.23;;;18.80;99.90;;;;;;5009210;28;20416;-76
2022/08/09 00:28:25;;;;;;;2.17;2.07;;;18.70;99.90;;;;;;4975190;28;20852;-76
2022/08/09 00:30:51;;;;;;;7.13;2.90;;;18.70;99.90;;;;;;5009013;28;20706;-76
2022/08/09 00:33:17;;;;;;;2.93;2.40;;;18.60;99.90;;;;;;5008987;28;20431;-75
2022/08/09 00:35:42;;;;;;;3.30;2.30;;;18.50;99.90;;;;;;5008727;28;20439;-76
2022/08/09 00:38:11;;;;;;;2.33;2.20;;;18.50;99.90;;;;;;5008764;28;20209;-76
2022/08/09 00:40:37;;;;;;;2.60;2.50;;;18.50;99.90;;;;;;4991334;28;20247;-76
2022/08/09 00:43:03;;;;;;;5.00;3.03;;;18.50;99.90;;;;;;4991364;28;20494;-76
2022/08/09 00:45:28;;;;;;;3.30;3.00;;;18.40;99.90;;;;;;4991179;28;21026;-76
2022/08/09 00:47:54;;;;;;;5.10;2.80;;;18.30;99.90;;;;;;5008808;28;20698;-77
2022/08/09 00:50:20;;;;;;;3.10;2.80;;;18.30;99.90;;;;;;4991056;28;20226;-77
2022/08/09 00:52:45;;;;;;;5.13;2.80;;;18.30;99.90;;;;;;4974785;28;20284;-77
2022/08/09 00:55:11;;;;;;;3.20;3.00;;;18.20;99.90;;;;;;4992593;28;20343;-77
2022/08/09 00:57:37;;;;;;;2.90;2.33;;;18.10;99.90;;;;;;5012638;28;20204;-77
2022/08/09 01:00:09;;;;;;;4.63;2.47;;;18.10;99.90;;;;;;4995057;28;20207;-77
2022/08/09 01:02:39;;;;;;;3.63;2.20;;;18.10;99.90;;;;;;4979592;28;20183;-76
2022/08/09 01:05:32;;;;;;;3.23;2.40;;;18.20;99.90;;;;;;4995296;28;20422;-77
2022/08/09 01:08:27;;;;;;;2.30;2.10;;;18.10;99.90;;;;;;4995817;28;20431;-77
2022/08/09 01:10:53;;;;;;;6.43;2.57;;;18.10;99.90;;;;;;4995541;28;20445;-77
2022/08/09 01:13:29;;;;;;;6.63;2.67;;;18.10;99.90;;;;;;5013718;28;20427;-77
2022/08/09 01:15:56;;;;;;;2.60;2.10;;;18.10;99.90;;;;;;5013366;28;20169;-78
2022/08/09 01:18:30;;;;;;;2.60;2.20;;;18.10;99.90;;;;;;5013054;28;20502;-76
2022/08/09 01:21:13;;;;;;;3.90;2.10;;;18.10;99.90;;;;;;4995169;28;20449;-76
2022/08/09 01:24:03;;;;;;;3.80;2.20;;;18.10;99.90;;;;;;5012567;28;20506;-76
2022/08/09 01:26:56;;;;;;;2.40;2.00;;;18.20;99.90;;;;;;5012619;28;20456;-75
2022/08/09 01:29:33;;;;;;;4.67;2.17;;;18.10;99.90;;;;;;5012505;28;20442;-77
2022/08/09 01:32:02;;;;;;;2.47;2.20;;;18.20;99.90;;;;;;5012850;28;20416;-76
2022/08/09 01:34:31;;;;;;;7.53;2.40;;;18.10;99.90;;;;;;5018067;28;20419;-80
2022/08/09 01:36:59;;;;;;;2.70;2.43;;;18.20;99.90;;;;;;4984975;28;20489;-80
2022/08/09 01:39:27;;;;;;;2.70;1.93;;;18.20;99.90;;;;;;5017396;28;20439;-80
2022/08/09 01:41:54;;;;;;;3.37;2.47;;;18.00;99.90;;;;;;4983380;28;20538;-79
2022/08/09 01:44:22;;;;;;;3.13;2.33;;;18.00;99.90;;;;;;4999885;28;20430;-80
2022/08/09 01:46:49;;;;;;;4.20;2.50;;;17.80;99.90;;;;;;5017744;28;20423;-80
2022/08/09 01:49:17;;;;;;;5.33;1.90;;;17.80;99.90;;;;;;4997795;28;20490;-80
2022/08/09 01:51:57;;;;;;;2.33;2.07;;;17.70;99.90;;;;;;5016080;28;20440;-79
2022/08/09 01:54:29;;;;;;;2.30;2.20;;;17.70;99.90;;;;;;4981449;28;20439;-79
2022/08/09 01:56:57;;;;;;;5.27;2.57;;;17.60;99.90;;;;;;5013569;28;20400;-79
2022/08/09 01:59:23;;;;;;;2.53;2.33;;;17.50;99.90;;;;;;4978238;28;20886;-78
2022/08/09 02:01:52;;;;;;;2.97;2.40;;;17.40;99.90;;;;;;4994115;28;20864;-78
2022/08/09 02:04:20;;;;;;;2.57;2.37;;;17.30;99.90;;;;;;5011922;28;20459;-78
2022/08/09 02:09:40;;;;;;;3.43;2.50;;;17.20;99.90;;;;;;5013245;28;20530;-78
2022/08/09 02:12:08;;;;;;;2.03;1.93;;;17.10;99.90;;;;;;4995186;28;20516;-78
2022/08/09 02:14:36;;;;;;;4.43;2.13;;;17.10;99.90;;;;;;5012257;28;20426;-78
2022/08/09 02:17:03;;;;;;;2.60;2.40;;;17.00;99.90;;;;;;5013575;28;20473;-77
2022/08/09 02:19:29;;;;;;;2.43;2.17;;;17.00;99.90;;;;;;5014876;28;20987;-77
2022/08/09 02:21:58;;;;;;;2.80;2.50;;;17.00;99.90;;;;;;5014427;28;20553;-77
2022/08/09 02:24:28;;;;;;;3.00;2.67;;;17.00;99.90;;;;;;5011189;28;20195;-77
2022/08/09 02:26:59;;;;;;;2.70;2.40;;;16.90;99.90;;;;;;4977587;28;20435;-77
2022/08/09 02:29:27;;;;;;;3.97;2.70;;;16.80;99.90;;;;;;5011172;28;20444;-78
2022/08/09 02:31:59;;;;;;;2.93;2.73;;;16.70;99.90;;;;;;5011054;28;21285;-77
2022/08/09 02:34:31;;;;;;;2.90;2.60;;;16.70;99.90;;;;;;5010953;28;20420;-77
2022/08/09 02:37:01;;;;;;;6.10;2.90;;;16.70;99.90;;;;;;4994762;28;20848;-78
2022/08/09 02:39:35;;;;;;;3.30;3.00;;;16.70;99.90;;;;;;4993193;28;20820;-78
2022/08/09 02:42:05;;;;;;;4.13;2.50;;;16.60;99.90;;;;;;4994354;28;20494;-78
2022/08/09 02:44:35;;;;;;;3.20;2.80;;;16.60;99.90;;;;;;5011057;28;20411;-78
2022/08/09 02:47:05;;;;;;;3.27;3.07;;;16.50;99.90;;;;;;4993322;28;20436;-78
2022/08/09 02:49:41;;;;;;;3.37;3.07;;;16.40;99.90;;;;;;5010750;28;20457;-77
2022/08/09 02:52:10;;;;;;;4.90;3.27;;;16.40;99.90;;;;;;5010808;28;20415;-76
2022/08/09 02:54:38;;;;;;;3.23;2.70;;;16.20;99.90;;;;;;5010836;28;20427;-76
2022/08/09 02:57:05;;;;;;;4.40;3.70;;;16.30;99.90;;;;;;5010784;28;20467;-77
2022/08/09 02:59:34;;;;;;;3.17;2.90;;;16.10;99.90;;;;;;5010555;28;20442;-77
2022/08/09 03:02:01;;;;;;;4.37;3.00;;;16.10;99.90;;;;;;4993143;28;20470;-77
2022/08/09 03:04:27;;;;;;;3.30;3.00;;;16.00;99.90;;;;;;5010517;28;20780;-77
2022/08/09 03:06:55;;;;;;;3.50;3.20;;;15.80;99.90;;;;;;4992816;28;20455;-78
2022/08/09 03:09:21;;;;;;;3.63;3.23;;;15.80;99.90;;;;;;5010520;28;20450;-78
2022/08/09 03:11:48;;;;;;;8.93;4.00;;;15.70;99.90;;;;;;5010734;28;20422;-76
2022/08/09 03:14:15;;;;;;;4.37;3.40;;;15.80;99.90;;;;;;4992896;28;20426;-76
2022/08/09 03:16:41;;;;;;;8.50;3.00;;;15.80;99.90;;;;;;4993229;28;20482;-76
2022/08/09 03:19:08;;;;;;;4.77;3.30;;;15.60;99.90;;;;;;5010143;28;21135;-76
2022/08/09 03:21:34;;;;;;;3.23;2.93;;;15.80;99.90;;;;;;5011128;28;20494;-77
2022/08/09 03:24:00;;;;;;;4.23;3.20;;;15.80;99.90;;;;;;5010922;28;20429;-75
2022/08/09 03:26:27;;;;;;;3.37;3.07;;;15.80;99.90;;;;;;5010695;28;20485;-76
2022/08/09 03:28:57;;;;;;;3.57;3.07;;;15.80;99.90;;;;;;4993147;28;20505;-76
2022/08/09 03:31:24;;;;;;;3.30;3.00;;;15.90;99.90;;;;;;5010719;28;20461;-76
2022/08/09 03:33:51;;;;;;;3.57;3.23;;;15.80;99.90;;;;;;4976758;28;20504;-75
2022/08/09 03:36:17;;;;;;;5.37;2.80;;;15.80;99.90;;;;;;4993116;28;20438;-76
2022/08/09 03:38:43;;;;;;;6.70;2.80;;;15.80;99.90;;;;;;5010555;28;20907;-76
2022/08/09 03:41:13;;;;;;;3.87;3.20;;;15.80;99.90;;;;;;5010157;28;20274;-76
2022/08/09 03:43:39;;;;;;;3.20;2.87;;;15.80;99.90;;;;;;4992203;28;20423;-75
2022/08/09 03:46:04;;;;;;;5.07;3.37;;;15.80;99.90;;;;;;5009867;28;20852;-76
2022/08/09 03:48:32;;;;;;;3.80;3.53;;;15.70;99.90;;;;;;5010074;28;20191;-76
2022/08/09 03:50:59;;;;;;;3.40;3.20;;;15.70;99.90;;;;;;4992839;28;20225;-76
2022/08/09 03:53:25;;;;;;;3.90;3.60;;;15.60;99.90;;;;;;5009876;28;20434;-76
2022/08/09 03:55:51;;;;;;;4.00;3.60;;;15.60;99.90;;;;;;4975861;28;20450;-76
2022/08/09 03:58:17;;;;;;;4.10;3.70;;;15.60;99.90;;;;;;5009367;28;20495;-76
2022/08/09 04:00:44;;;;;;;4.10;3.23;;;15.50;99.90;;;;;;4991480;28;20551;-77
2022/08/09 04:03:10;;;;;;;4.40;3.00;;;15.60;99.90;;;;;;5010234;28;20978;-78
2022/08/09 04:05:36;;;;;;;3.37;3.07;;;15.60;99.90;;;;;;5010987;28;20445;-79
2022/08/09 04:08:02;;;;;;;5.10;3.33;;;15.60;99.90;;;;;;5012454;28;20441;-77
2022/08/09 04:10:27;;;;;;;4.10;3.67;;;15.50;99.90;;;;;;5009257;28;20944;-76
2022/08/09 04:12:53;;;;;;;6.33;3.90;;;15.60;99.90;;;;;;4975209;28;20340;-75
2022/08/09 04:15:21;;;;;;;4.43;3.70;;;15.60;99.90;;;;;;4974996;28;20629;-75
2022/08/09 04:17:47;;;;;;;3.70;3.40;;;15.50;99.90;;;;;;4991250;28;20609;-75
2022/08/09 04:20:14;;;;;;;3.77;3.33;;;15.50;99.90;;;;;;5009074;28;20439;-75
2022/08/09 04:22:40;;;;;;;3.50;3.30;;;15.60;99.90;;;;;;4991158;28;20426;-75
2022/08/09 04:25:07;;;;;;;3.73;3.30;;;15.60;99.90;;;;;;5008293;28;20527;-76
2022/08/09 04:27:34;;;;;;;5.57;3.60;;;15.60;99.90;;;;;;5007647;28;20430;-76
2022/08/09 04:30:00;;;;;;;3.93;3.17;;;15.50;99.90;;;;;;4989677;28;20553;-76
2022/08/09 04:32:27;;;;;;;4.30;3.40;;;15.60;99.90;;;;;;5008741;28;20424;-77
2022/08/09 04:34:53;;;;;;;4.20;3.67;;;15.50;99.90;;;;;;4991202;28;21002;-77
2022/08/09 04:37:19;;;;;;;4.10;3.70;;;15.50;99.90;;;;;;5009341;28;20484;-77
2022/08/09 04:39:45;;;;;;;4.50;3.30;;;15.50;99.90;;;;;;4990350;28;20492;-77
2022/08/09 04:42:11;;;;;;;9.23;3.70;;;15.50;99.90;;;;;;5007847;28;20284;-77
2022/08/09 04:44:37;;;;;;;7.17;3.47;;;15.50;99.90;;;;;;5007371;28;20450;-77
2022/08/09 04:47:03;;;;;;;3.47;3.27;;;15.60;99.90;;;;;;4989670;28;20499;-77
2022/08/09 04:49:35;;;;;;;4.20;3.30;;;15.60;99.90;;;;;;4989878;28;20469;-77
2022/08/09 04:52:05;;;;;;;4.30;3.97;;;15.70;99.90;;;;;;5007386;28;20192;-77
2022/08/09 04:54:31;;;;;;;6.97;3.50;;;15.70;99.90;;;;;;4973856;28;20451;-77
2022/08/09 04:56:57;;;;;;;7.47;4.07;;;15.70;99.90;;;;;;4989404;28;21003;-77
2022/08/09 04:59:22;;;;;;;4.80;3.70;;;15.70;99.90;;;;;;5007183;28;20541;-77
2022/08/09 05:01:48;;;;;;;6.50;3.70;;;15.60;99.90;;;;;;5007142;28;20262;-77
2022/08/09 05:04:14;;;;;;;4.53;4.07;;;15.60;99.90;;;;;;4973367;28;20203;-77
2022/08/09 05:06:39;;;;;;;3.60;3.30;;;15.60;99.90;;;;;;4973295;28;20302;-77
2022/08/09 05:09:05;;;;;;;4.87;3.70;;;15.70;99.90;;;;;;4989558;28;20237;-77
2022/08/09 05:11:31;;;;;;;7.67;4.53;;;15.70;99.90;;;;;;4989525;28;20954;-77
2022/08/09 05:13:56;;;;;;;4.70;3.80;;;15.70;99.90;;;;;;5007164;28;20195;-77
2022/08/09 05:16:22;;;;;;;3.80;3.50;;;15.70;99.90;;;;;;4989586;28;20205;-77
2022/08/09 05:18:48;;;;;;;3.73;3.43;;;15.70;99.90;;;;;;4989393;28;20743;-77
2022/08/09 05:21:13;;;;;;;6.93;3.70;;;15.80;99.90;;;;;;4989454;28;20186;-77
2022/08/09 05:23:39;;;;;;;5.13;3.87;;;15.90;99.90;;;;;;4988935;28;20200;-77
2022/08/09 05:26:05;;;;;;;4.27;3.63;;;16.10;99.90;;;;;;4973034;28;20190;-77
2022/08/09 05:28:31;;;;;;;5.03;3.50;;;16.10;99.90;;;;;;4989378;28;20202;-77
2022/08/09 05:30:56;;;;;;;5.03;2.80;;;16.30;99.90;;;;;;5006914;28;20499;-77
2022/08/09 05:33:22;;;;;;;8.57;3.90;;;16.60;99.90;;;;;;4989573;28;20199;-77
2022/08/09 05:35:48;;;;;;;4.30;3.40;;;16.60;99.90;;;;;;5007110;28;20271;-77
2022/08/09 05:38:14;;;;;;;5.50;3.40;;;16.80;99.90;;;;;;4989889;28;20220;-77
2022/08/09 05:40:40;;;;;;;3.90;3.47;;;16.80;99.90;;;;;;4990717;28;20344;-77
2022/08/09 05:43:06;;;;;;;5.03;4.03;;;16.80;99.90;;;;;;4977030;28;20223;-77
2022/08/09 05:45:32;;;;;;;3.37;3.17;;;17.10;99.90;;;;;;4993200;28;20430;-77
2022/08/09 05:47:57;;;;;;;4.40;3.40;;;17.20;99.90;;;;;;5010906;28;20438;-77
2022/08/09 05:50:27;;;;;;;5.43;3.50;;;17.30;99.90;;;;;;5010944;28;20466;-77
2022/08/09 05:52:53;;;;;;;4.20;3.67;;;17.40;99.90;;;;;;4993480;28;20333;-77
2022/08/09 05:55:19;;;;;;;4.17;3.23;;;17.50;99.90;;;;;;5010477;28;20906;-77
2022/08/09 05:57:44;;;;;;;5.83;4.00;;;17.60;99.90;;;;;;4993051;28;20861;-77
2022/08/09 06:00:12;;;;;;;3.80;3.50;;;17.70;99.90;;;;;;5010720;28;20238;-77
2022/08/09 06:02:38;;;;;;;4.10;3.20;;;17.70;99.90;;;;;;5010860;28;20192;-77
2022/08/09 06:05:05;;;;;;;4.33;3.33;;;17.90;99.90;;;;;;4992704;28;20435;-77
2022/08/09 06:07:31;;;;;;;8.83;3.10;;;18.00;99.90;;;;;;4992878;28;20460;-77
2022/08/09 06:09:57;;;;;;;3.23;2.67;;;18.10;99.90;;;;;;4977219;28;20969;-77
2022/08/09 06:12:22;;;;;;;4.17;3.20;;;18.30;99.90;;;;;;5010922;28;20308;-77
2022/08/09 06:14:48;;;;;;;3.83;3.40;;;18.50;99.90;;;;;;5010934;28;20427;-77
2022/08/09 06:17:14;;;;;;;6.53;3.40;;;18.60;99.90;;;;;;4993890;28;20310;-77
2022/08/09 06:19:39;;;;;;;3.87;3.47;;;18.60;99.90;;;;;;4993798;28;20551;-77
2022/08/09 06:22:05;;;;;;;3.37;3.07;;;18.80;99.90;;;;;;4993141;28;20197;-77
2022/08/09 06:24:31;;;;;;;5.67;2.80;;;18.90;99.90;;;;;;4976906;28;20191;-77
2022/08/09 06:26:57;;;;;;;3.97;3.57;;;19.10;99.90;;;;;;4992589;28;20435;-77
2022/08/09 06:29:23;;;;;;;3.63;3.33;;;19.20;99.90;;;;;;4992440;28;20295;-77
2022/08/09 06:31:48;;;;;;;7.20;3.27;;;19.20;99.90;;;;;;4992502;28;20196;-77
2022/08/09 06:34:14;;;;;;;4.50;3.53;;;19.40;99.90;;;;;;4993319;28;20904;-77
2022/08/09 06:36:40;;;;;;;5.30;3.77;;;19.40;99.90;;;;;;4992446;28;20821;-77
2022/08/09 06:39:09;;;;;;;4.03;3.00;;;19.50;99.90;;;;;;5010005;28;20229;-77
2022/08/09 06:41:36;;;;;;;3.53;2.90;;;19.70;99.90;;;;;;5010066;28;20185;-77
2022/08/09 06:44:02;;;;;;;4.30;3.00;;;19.80;99.90;;;;;;4976110;28;20626;-77
2022/08/09 06:46:27;;;;;;;4.17;3.00;;;19.90;99.90;;;;;;4992882;28;20538;-77
2022/08/09 06:48:53;;;;;;;3.60;3.23;;;20.00;99.90;;;;;;4976802;28;20219;-77
2022/08/09 06:51:18;;;;;;;3.07;2.80;;;20.10;99.90;;;;;;4976154;28;20200;-77
2022/08/09 06:53:44;;;;;;;3.50;3.20;;;20.20;99.90;;;;;;5008975;28;20197;-77
2022/08/09 06:56:10;;;;;;;6.67;3.37;;;20.30;99.90;;;;;;4992243;28;20189;-77
2022/08/09 06:58:36;;;;;;;5.10;3.20;;;20.30;99.90;;;;;;4975549;28;20213;-77
2022/08/09 07:01:02;;;;;;;4.70;3.10;;;20.40;99.90;;;;;;5010034;28;20707;-77
2022/08/09 07:03:28;;;;;;;2.70;2.50;;;20.50;99.90;;;;;;4992501;28;20440;-77
2022/08/09 07:05:54;;;;;;;3.50;3.20;;;20.60;99.90;;;;;;4976823;28;20232;-77
2022/08/09 07:08:21;;;;;;;3.87;2.80;;;20.60;99.90;;;;;;5009520;28;20272;-77
2022/08/09 07:10:46;;;;;;;4.57;3.47;;;20.50;99.90;;;;;;5009754;28;20452;-77
2022/08/09 07:13:12;;;;;;;6.23;3.73;;;20.50;99.90;;;;;;5010266;28;20440;-77
2022/08/09 07:15:38;;;;;;;8.00;3.57;;;20.40;99.90;;;;;;4976791;28;20189;-77
2022/08/09 07:18:04;;;;;;;4.53;3.67;;;20.50;99.90;;;;;;5010553;28;20557;-77
2022/08/09 07:20:29;;;;;;;5.60;3.33;;;20.50;99.90;;;;;;5010627;28;20280;-77
2022/08/09 07:22:55;;;;;;;6.70;3.90;;;20.60;99.90;;;;;;4992566;28;20188;-77
2022/08/09 07:25:21;;;;;;;3.03;2.77;;;20.70;99.90;;;;;;4977162;28;20279;-77
2022/08/09 07:27:46;;;;;;;3.40;3.10;;;20.70;99.90;;;;;;5009917;28;20189;-77
2022/08/09 07:30:13;;;;;;;6.13;3.73;;;20.70;99.90;;;;;;4992734;28;20227;-77
2022/08/09 07:32:40;;;;;;;4.37;3.20;;;20.70;99.90;;;;;;5015694;28;20424;-77
2022/08/09 07:35:08;;;;;;;3.23;2.90;;;20.80;99.90;;;;;;4991642;28;20420;-77
2022/08/09 07:37:34;;;;;;;3.67;2.97;;;20.80;99.90;;;;;;5008504;28;20464;-77
2022/08/09 07:39:59;;;;;;;5.03;2.90;;;20.90;99.90;;;;;;5008544;28;20804;-77
2022/08/09 07:42:25;;;;;;;8.07;3.00;;;21.00;99.90;;;;;;5008513;28;20243;-77
2022/08/09 07:44:51;;;;;;;7.60;3.00;;;21.10;99.90;;;;;;4990991;28;20927;-77
2022/08/09 07:47:17;;;;;;;8.20;2.67;;;21.10;99.90;;;;;;5008514;28;20189;-77
2022/08/09 07:49:43;;;;;;;3.20;2.60;;;21.20;99.90;;;;;;4990590;28;20209;-77
2022/08/09 07:52:09;;;;;;;5.37;3.00;;;21.30;99.90;;;;;;4990916;28;20477;-77
2022/08/09 07:54:34;;;;;;;3.27;2.53;;;21.40;99.90;;;;;;5008147;28;20793;-77
2022/08/09 07:57:00;;;;;;;7.23;3.47;;;21.50;99.90;;;;;;5008281;28;20625;-77
2022/08/09 07:59:26;;;;;;;4.70;2.20;;;21.60;99.90;;;;;;4990408;28;20201;-77
2022/08/09 08:01:54;;;;;;;4.13;2.60;;;21.70;99.90;;;;;;5008843;28;20185;-77
2022/08/09 08:04:20;;;;;;;5.40;2.30;;;21.80;99.90;;;;;;5008504;28;20678;-77
2022/08/09 08:06:46;;;;;;;6.30;2.40;;;22.00;99.90;;;;;;4991165;28;20445;-77
2022/08/09 08:09:12;;;;;;;3.23;2.90;;;22.00;99.90;;;;;;5009266;28;20510;-77
2022/08/09 08:11:38;;;;;;;4.23;2.10;;;22.20;99.90;;;;;;5009326;28;20215;-77
2022/08/09 08:14:04;;;;;;;4.80;2.90;;;22.20;99.90;;;;;;4991886;28;20190;-77
2022/08/09 08:16:30;;;;;;;2.63;1.90;;;22.40;99.90;;;;;;4994231;28;20185;-77
2022/08/09 08:18:56;;;;;;;4.53;2.10;;;22.40;99.90;;;;;;5011066;28;20217;-77
2022/08/09 08:21:22;;;;;;;3.53;2.23;;;22.60;99.90;;;;;;4994070;28;20810;-77
2022/08/09 08:23:48;;;;;;;2.90;2.30;;;22.80;99.50;;;;;;5012036;28;20425;-77
2022/08/09 08:26:14;;;;;;;5.10;2.57;;;22.90;98.80;;;;;;4992601;28;20790;-78
2022/08/09 08:28:39;;;;;;;3.63;2.23;;;23.10;98.90;;;;;;5011174;28;20283;-77
2022/08/09 08:31:05;;;;;;;10.10;3.20;;;23.20;98.40;;;;;;4993824;28;20218;-77
2022/08/09 08:33:31;;;;;;;2.83;2.07;;;23.30;99.00;;;;;;5010761;28;20179;-77
2022/08/09 08:35:56;;;;;;;3.17;1.93;;;23.50;97.80;;;;;;4992064;28;20274;-77
2022/08/09 08:38:22;;;;;;;4.37;1.90;;;23.60;96.90;;;;;;4991707;28;20560;-77
2022/08/09 08:40:48;;;;;;;5.57;2.30;;;23.80;97.10;;;;;;4991229;28;20204;-78
2022/08/09 08:43:14;;;;;;;4.60;2.07;;;23.80;96.00;;;;;;4990307;28;20189;-78
2022/08/09 08:45:48;;;;;;;2.90;1.67;;;24.00;95.50;;;;;;5007734;28;20954;-77
2022/08/09 08:48:14;;;;;;;2.30;1.93;;;24.20;94.50;;;;;;4974663;28;20733;-77
2022/08/09 08:50:40;;;;;;;7.47;2.10;;;24.40;90.90;;;;;;5007740;28;21045;-77
2022/08/09 08:53:06;;;;;;;6.20;2.20;;;24.50;90.80;;;;;;4989879;28;20431;-77
2022/08/09 08:55:32;;;;;;;4.50;1.67;;;24.60;92.50;;;;;;4990215;28;20430;-77
2022/08/09 08:57:57;;;;;;;7.57;1.73;;;24.80;85.00;;;;;;4990257;28;20936;-77
2022/08/09 09:00:26;;;;;;;3.03;1.77;;;25.00;82.40;;;;;;5007790;28;20205;-77
2022/08/09 09:02:59;;;;;;;2.23;1.90;;;25.20;79.70;;;;;;4990027;28;20542;-77
2022/08/09 09:05:25;;;;;;;2.80;1.60;;;25.50;79.10;;;;;;5007850;28;20522;-77
2022/08/09 09:07:52;;;;;;;3.47;1.70;;;25.70;76.80;;;;;;4990039;28;20519;-77
2022/08/09 09:10:19;;;;;;;2.43;1.40;;;25.80;73.30;;;;;;5007398;28;20211;-77
2022/08/09 09:12:47;;;;;;;2.70;1.80;;;26.10;74.20;;;;;;5007641;28;20929;-77
2022/08/09 09:15:13;;;;;;;2.27;1.70;;;26.30;72.60;;;;;;4989766;28;20428;-77
2022/08/09 09:17:38;;;;;;;4.43;1.60;;;26.60;72.70;;;;;;5011551;28;20832;-77
2022/08/09 09:20:13;;;;;;;2.40;1.67;;;26.80;70.20;;;;;;5012189;28;20205;-77
2022/08/09 09:22:50;;;;;;;6.90;1.80;;;27.00;68.90;;;;;;4994383;28;20287;-77
2022/08/09 09:25:40;;;;;;;3.63;1.77;;;27.00;65.20;;;;;;5013385;28;20415;-77
2022/08/09 09:28:07;;;;;;;7.57;1.50;;;27.30;65.80;;;;;;5015924;28;20434;-78
2022/08/09 09:30:34;;;;;;;2.17;1.97;;;27.50;64.90;;;;;;4993796;28;20579;-77
2022/08/09 09:33:09;;;;;;;4.93;1.93;;;27.80;63.90;;;;;;5011982;28;20424;-77
2022/08/09 09:35:56;;;;;;;2.53;1.60;;;28.00;63.10;;;;;;4994114;28;20572;-77
2022/08/09 09:38:22;;;;;;;4.00;1.67;;;28.30;61.40;;;;;;5011942;28;20916;-77
2022/08/09 09:40:48;;;;;;;3.40;2.10;;;28.60;59.20;;;;;;5012254;28;20439;-77
2022/08/09 09:43:19;;;;;;;3.23;1.80;;;28.80;58.90;;;;;;4994186;28;20423;-78
2022/08/09 09:45:51;;;;;;;6.50;1.73;;;28.90;59.50;;;;;;4993929;28;21031;-77
2022/08/09 09:48:18;;;;;;;1.70;1.60;;;28.80;56.10;;;;;;5011831;28;20428;-77
2022/08/09 09:50:49;;;;;;;3.23;1.30;;;29.00;57.40;;;;;;5011063;28;20444;-77
2022/08/09 09:53:18;;;;;;;4.57;1.53;;;29.40;56.60;;;;;;4992966;28;20499;-77
2022/08/09 09:56:00;;;;;;;1.63;1.33;;;29.80;57.20;;;;;;4992759;28;20435;-77
2022/08/09 09:58:46;;;;;;;2.70;1.50;;;30.00;54.00;;;;;;4994509;28;20828;-77
2022/08/09 10:01:20;;;;;;;3.37;1.80;;;30.10;55.20;;;;;;5011556;28;20435;-77
2022/08/09 10:03:47;;;;;;;2.70;1.70;;;30.00;53.80;;;;;;4976947;28;20440;-77
2022/08/09 10:06:13;;;;;;;2.60;1.87;;;29.70;52.40;;;;;;5011029;28;20448;-77
2022/08/09 10:08:40;;;;;;;3.77;1.43;;;29.70;53.40;;;;;;4993183;28;20466;-77
2022/08/09 10:11:30;;;;;;;1.60;1.50;;;29.70;53.20;;;;;;4992651;28;20679;-77
2022/08/09 10:13:56;;;;;;;1.50;1.40;;;30.00;53.80;;;;;;5010676;28;20461;-77
2022/08/09 10:16:30;;;;;;;2.63;1.33;;;30.10;53.00;;;;;;5010503;28;20439;-77
2022/08/09 10:18:59;;;;;;;1.47;1.30;;;30.30;52.60;;;;;;5009813;28;20477;-77
2022/08/09 10:21:25;;;;;;;2.13;1.73;;;30.30;51.80;;;;;;4992287;28;20430;-77
2022/08/09 10:23:53;;;;;;;2.90;1.47;;;30.50;52.30;;;;;;4991868;28;20995;-77
2022/08/09 10:26:20;;;;;;;2.33;1.60;;;30.70;52.50;;;;;;4992277;28;20947;-77
2022/08/09 10:28:46;;;;;;;10.53;2.00;;;30.80;51.20;;;;;;5010624;28;20540;-77
2022/08/09 10:31:13;;;;;;;3.60;1.30;;;30.60;49.10;;;;;;5011192;28;20506;-77
2022/08/09 10:33:40;;;;;;;2.80;1.40;;;30.60;50.20;;;;;;4992417;28;20955;-77
2022/08/09 10:36:08;;;;;;;1.50;1.40;;;30.80;50.90;;;;;;4992031;28;20820;-77
2022/08/09 10:38:34;;;;;;;1.60;1.43;;;31.10;49.80;;;;;;5009603;28;20466;-77
2022/08/09 10:41:00;;;;;;;4.90;1.40;;;31.20;49.30;;;;;;4991960;28;20448;-77
2022/08/09 10:43:27;;;;;;;5.43;1.60;;;30.60;48.90;;;;;;4992173;28;20486;-77
2022/08/09 10:45:53;;;;;;;3.53;1.63;;;30.20;50.50;;;;;;4992049;28;20188;-77
2022/08/09 10:48:35;;;;;;;10.00;1.93;;;30.20;50.80;;;;;;5010377;28;20425;-77
2022/08/09 10:51:35;;;;;;;4.10;1.60;;;30.50;50.90;;;;;;5009559;28;20560;-77
2022/08/09 10:54:06;;;;;;;3.03;1.40;;;31.10;49.90;;;;;;5009284;28;21022;-77
2022/08/09 10:56:35;;;;;;;1.73;1.30;;;31.20;49.30;;;;;;5009166;28;20450;-77
2022/08/09 10:59:20;;;;;;;6.00;1.70;;;31.40;48.70;;;;;;5009003;28;20902;-77
2022/08/09 11:01:46;;;;;;;3.50;1.83;;;31.50;48.20;;;;;;5008993;28;20448;-77
2022/08/09 11:04:14;;;;;;;4.30;1.70;;;31.50;47.70;;;;;;5009021;28;20859;-77
2022/08/09 11:06:44;;;;;;;2.30;1.63;;;31.20;46.40;;;;;;5009040;28;20478;-76
2022/08/09 11:09:15;;;;;;;1.73;1.43;;;30.60;47.80;;;;;;5008991;28;20452;-77
2022/08/09 11:11:53;;;;;;;2.27;1.30;;;31.10;48.50;;;;;;5008934;28;20431;-77
2022/08/09 11:14:53;;;;;;;1.53;1.37;;;31.30;47.80;;;;;;5009247;28;20424;-77
2022/08/09 11:17:19;;;;;;;2.27;1.30;;;31.40;48.00;;;;;;5008926;28;20447;-77
2022/08/09 11:19:57;;;;;;;2.27;1.47;;;31.70;47.50;;;;;;5009145;28;20483;-77
2022/08/09 11:22:44;;;;;;;7.03;1.77;;;31.40;47.80;;;;;;5009738;28;20195;-77
2022/08/09 11:25:14;;;;;;;2.13;1.43;;;31.50;49.10;;;;;;4991104;28;20448;-77
2022/08/09 11:27:54;;;;;;;4.50;1.50;;;31.90;47.90;;;;;;4991233;28;20428;-77
2022/08/09 11:30:25;;;;;;;1.70;1.57;;;31.90;46.10;;;;;;5008821;28;20435;-77
2022/08/09 11:33:00;;;;;;;1.80;1.60;;;31.80;45.50;;;;;;5009109;28;20427;-77
2022/08/09 11:35:38;;;;;;;5.90;1.63;;;31.70;46.00;;;;;;5009239;28;20424;-77
2022/08/09 11:38:14;;;;;;;1.40;1.30;;;32.00;48.20;;;;;;4990411;28;20485;-77
2022/08/09 11:40:41;;;;;;;2.30;1.70;;;32.40;45.70;;;;;;5008423;28;20956;-77
2022/08/09 11:43:07;;;;;;;1.43;1.33;;;32.20;45.90;;;;;;5008442;28;20470;-77
2022/08/09 11:45:39;;;;;;;1.93;1.67;;;32.40;46.30;;;;;;5008387;28;20503;-77
2022/08/09 11:48:10;;;;;;;3.70;1.50;;;32.40;46.10;;;;;;5008531;28;20428;-77
2022/08/09 11:51:02;;;;;;;2.50;1.53;;;32.40;44.70;;;;;;5008745;28;20517;-77
2022/08/09 11:53:32;;;;;;;3.70;1.53;;;32.60;45.00;;;;;;4990965;28;20777;-77
2022/08/09 11:56:25;;;;;;;4.90;1.70;;;32.70;44.30;;;;;;5009059;28;20423;-77
2022/08/09 11:59:01;;;;;;;1.20;1.10;;;32.60;42.20;;;;;;4983255;28;20511;-77
2022/08/09 12:01:36;;;;;;;4.23;1.27;;;32.80;43.20;;;;;;4991422;28;20795;-77
2022/08/09 12:04:13;;;;;;;5.07;1.80;;;32.90;44.40;;;;;;4990894;28;20434;-77
2022/08/09 12:06:48;;;;;;;4.07;1.53;;;32.90;42.60;;;;;;4991073;28;20447;-77
2022/08/09 12:09:14;;;;;;;1.40;1.30;;;32.60;43.60;;;;;;5008980;28;20435;-77
2022/08/09 12:11:40;;;;;;;3.17;1.40;;;32.70;43.60;;;;;;4991254;28;20934;-77
2022/08/09 12:14:08;;;;;;;1.83;1.43;;;32.80;43.40;;;;;;4991461;28;20466;-77
2022/08/09 12:16:37;;;;;;;5.13;1.50;;;32.40;42.50;;;;;;4991374;28;20863;-77
2022/08/09 12:19:04;;;;;;;3.90;1.17;;;32.50;43.50;;;;;;5008147;28;20472;-77
2022/08/09 12:21:35;;;;;;;2.73;1.57;;;32.30;43.30;;;;;;5008317;28;20421;-77
2022/08/09 12:24:06;;;;;;;2.97;1.63;;;32.30;43.30;;;;;;4990701;28;20432;-77
2022/08/09 12:26:51;;;;;;;4.93;1.60;;;32.20;44.10;;;;;;5008937;28;20428;-77
2022/08/09 12:29:20;;;;;;;3.00;1.20;;;32.30;43.00;;;;;;5008720;28;20443;-77
2022/08/09 12:31:48;;;;;;;3.00;1.40;;;32.50;43.30;;;;;;4975221;28;20435;-77
2022/08/09 12:34:15;;;;;;;2.63;1.63;;;32.60;43.60;;;;;;4990589;28;20436;-77
2022/08/09 12:36:54;;;;;;;4.90;1.30;;;32.70;43.70;;;;;;4990885;28;20468;-77
2022/08/09 12:39:21;;;;;;;2.10;1.43;;;32.80;43.00;;;;;;4990660;28;21079;-79
2022/08/09 12:41:47;;;;;;;1.67;1.57;;;32.60;42.60;;;;;;4991181;28;20522;-79
2022/08/09 12:44:14;;;;;;;5.10;1.60;;;32.70;41.70;;;;;;4975316;28;20432;-79
2022/08/09 12:46:43;;;;;;;1.70;1.60;;;32.80;41.90;;;;;;4991307;28;20832;-79
2022/08/09 12:49:10;;;;;;;1.63;1.50;;;32.80;42.20;;;;;;4991119;28;20456;-79
2022/08/09 12:51:36;;;;;;;3.20;1.60;;;33.10;42.30;;;;;;4993584;28;20502;-79
2022/08/09 12:54:04;;;;;;;1.47;1.37;;;32.90;41.90;;;;;;5012658;28;20432;-79
2022/08/09 12:56:31;;;;;;;1.70;1.60;;;33.00;43.60;;;;;;5012713;28;20440;-78